createdAt,value
2023-05-28T00:00:27.913Z,2806.00
2023-05-28T00:01:27.973Z,2782.00
2023-05-28T00:02:28.107Z,2772.00
2023-05-28T00:03:28.253Z,2798.00
2023-05-28T00:04:28.221Z,2842.00
2023-05-28T00:05:28.225Z,2875.00
2023-05-28T00:06:28.296Z,2871.00
2023-05-28T00:07:28.356Z,2873.00
2023-05-28T00:08:28.414Z,2872.00
2023-05-28T00:09:28.483Z,2800.00
2023-05-28T00:10:28.523Z,2723.00
2023-05-28T00:11:28.592Z,2714.00
2023-05-28T00:12:28.646Z,2703.00
2023-05-28T00:13:28.715Z,2689.00
2023-05-28T00:14:28.799Z,2668.00
2023-05-28T00:15:28.887Z,2703.00
2023-05-28T00:16:28.976Z,2695.00
2023-05-28T00:17:29.021Z,2639.00
2023-05-28T00:18:29.070Z,2583.00
2023-05-28T00:19:29.106Z,2537.00
2023-05-28T00:20:29.780Z,2530.00
2023-05-28T00:21:29.241Z,2523.00
2023-05-28T00:22:29.370Z,2532.00
2023-05-28T00:23:29.344Z,2539.00
2023-05-28T00:24:29.437Z,2532.00
2023-05-28T00:25:29.479Z,2553.00
2023-05-28T00:26:29.490Z,2510.00
2023-05-28T00:27:29.589Z,2455.00
2023-05-28T00:28:29.624Z,2438.00
2023-05-28T00:29:29.687Z,2433.00
2023-05-28T00:30:29.722Z,2467.00
2023-05-28T00:31:29.852Z,2479.00
2023-05-28T00:32:29.907Z,2469.00
2023-05-28T00:33:29.964Z,2449.00
2023-05-28T00:34:30.005Z,2449.00
2023-05-28T00:35:30.019Z,2484.00
2023-05-28T00:36:30.131Z,2509.00
2023-05-28T00:37:30.188Z,2517.00
2023-05-28T00:38:30.302Z,2535.00
2023-05-28T00:39:30.263Z,2530.00
2023-05-28T00:40:30.352Z,2536.00
2023-05-28T00:41:30.383Z,2577.00
2023-05-28T00:42:30.425Z,2597.00
2023-05-28T00:43:30.499Z,2610.00
2023-05-28T00:44:30.547Z,2621.00
2023-05-28T00:45:30.722Z,2622.00
2023-05-28T00:46:30.818Z,2661.00
2023-05-28T00:47:30.739Z,2674.00
2023-05-28T00:48:30.788Z,2655.00
2023-05-28T00:49:30.805Z,2662.00
2023-05-28T00:50:30.845Z,2652.00
2023-05-28T00:51:30.928Z,2704.00
2023-05-28T00:52:31.009Z,2736.00
2023-05-28T00:53:31.032Z,2758.00
2023-05-28T00:54:31.105Z,2777.00
2023-05-28T00:55:31.167Z,2720.00
2023-05-28T00:56:31.246Z,2700.00
2023-05-28T00:57:31.263Z,2649.00
2023-05-28T00:58:31.364Z,2628.00
2023-05-28T00:59:31.416Z,2599.00
2023-05-28T01:00:31.471Z,2627.00
2023-05-28T01:01:31.505Z,2636.00
2023-05-28T01:02:31.564Z,2671.00
2023-05-28T01:03:31.626Z,2700.00
2023-05-28T01:04:31.715Z,2725.00
2023-05-28T01:05:31.697Z,2721.00
2023-05-28T01:06:31.763Z,2740.00
2023-05-28T01:07:31.814Z,2728.00
2023-05-28T01:08:31.839Z,2761.00
2023-05-28T01:09:31.917Z,2700.00
2023-05-28T01:10:31.990Z,2664.00
2023-05-28T01:11:32.730Z,2643.00
2023-05-28T01:12:32.041Z,2665.00
2023-05-28T01:13:32.105Z,2714.00
2023-05-28T01:14:32.205Z,2734.00
2023-05-28T01:15:32.252Z,2708.00
2023-05-28T01:16:32.393Z,2713.00
2023-05-28T01:17:32.386Z,2666.00
2023-05-28T01:18:32.435Z,2635.00
2023-05-28T01:19:32.453Z,2644.00
2023-05-28T01:20:32.521Z,2696.00
2023-05-28T01:21:32.530Z,2755.00
2023-05-28T01:22:32.564Z,2774.00
2023-05-28T01:23:32.598Z,2803.00
2023-05-28T01:24:32.640Z,2782.00
2023-05-28T01:25:32.716Z,2800.00
2023-05-28T01:26:32.760Z,2802.00
2023-05-28T01:27:32.810Z,2777.00
2023-05-28T01:28:32.821Z,2766.00
2023-05-28T01:29:32.892Z,2768.00
2023-05-28T01:30:32.929Z,2800.00
2023-05-28T01:31:33.006Z,2813.00
2023-05-28T01:32:33.008Z,2820.00
2023-05-28T01:33:33.052Z,2800.00
2023-05-28T01:34:33.079Z,2805.00
2023-05-28T01:35:33.115Z,2803.00
2023-05-28T01:36:33.127Z,2809.00
2023-05-28T01:37:33.171Z,2829.00
2023-05-28T01:38:33.250Z,2787.00
2023-05-28T01:39:33.294Z,2825.00
2023-05-28T01:40:34.244Z,2829.00
2023-05-28T01:41:33.412Z,2839.00
2023-05-28T01:42:33.479Z,2828.00
2023-05-28T01:43:33.506Z,2815.00
2023-05-28T01:44:33.529Z,2798.00
2023-05-28T01:45:33.567Z,2781.00
2023-05-28T01:46:33.611Z,2817.00
2023-05-28T01:47:33.651Z,2804.00
2023-05-28T01:48:33.712Z,2840.00
2023-05-28T01:49:33.708Z,2816.00
2023-05-28T01:50:33.766Z,2817.00
2023-05-28T01:51:33.841Z,2772.00
2023-05-28T01:52:33.861Z,2681.00
2023-05-28T01:53:33.919Z,2662.00
2023-05-28T01:54:33.969Z,2676.00
2023-05-28T01:55:34.075Z,2676.00
2023-05-28T01:56:34.083Z,2681.00
2023-05-28T01:57:34.131Z,2679.00
2023-05-28T01:58:34.187Z,2733.00
2023-05-28T01:59:34.253Z,2742.00
2023-05-28T02:00:34.298Z,2759.00
2023-05-28T02:01:34.513Z,2786.00
2023-05-28T02:02:34.526Z,2758.00
2023-05-28T02:03:34.479Z,2760.00
2023-05-28T02:04:34.514Z,2772.00
2023-05-28T02:05:34.563Z,2785.00
2023-05-28T02:06:34.606Z,2793.00
2023-05-28T02:07:34.656Z,2811.00
2023-05-28T02:08:34.705Z,2833.00
2023-05-28T02:09:34.729Z,2836.00
2023-05-28T02:10:34.792Z,2825.00
2023-05-28T02:11:34.810Z,2801.00
2023-05-28T02:12:34.862Z,2829.00
2023-05-28T02:13:34.915Z,2831.00
2023-05-28T02:14:34.961Z,2805.00
2023-05-28T02:15:35.024Z,2799.00
2023-05-28T02:16:35.069Z,2775.00
2023-05-28T02:17:35.092Z,2813.00
2023-05-28T02:18:35.140Z,2758.00
2023-05-28T02:19:35.180Z,2767.00
2023-05-28T02:20:35.329Z,2793.00
2023-05-28T02:21:35.324Z,2778.00
2023-05-28T02:22:35.339Z,2773.00
2023-05-28T02:23:35.395Z,2788.00
2023-05-28T02:24:35.433Z,2789.00
2023-05-28T02:25:35.451Z,2804.00
2023-05-28T02:26:35.493Z,2788.00
2023-05-28T02:27:35.597Z,2780.00
2023-05-28T02:28:35.606Z,2771.00
2023-05-28T02:29:35.665Z,2763.00
2023-05-28T02:30:35.689Z,2773.00
2023-05-28T02:31:35.788Z,2763.00
2023-05-28T02:32:35.835Z,2768.00
2023-05-28T02:33:35.833Z,2752.00
2023-05-28T02:34:35.879Z,2746.00
2023-05-28T02:35:35.916Z,2736.00
2023-05-28T02:36:35.959Z,2738.00
2023-05-28T02:37:35.974Z,2746.00
2023-05-28T02:38:36.029Z,2763.00
2023-05-28T02:39:36.111Z,2766.00
2023-05-28T02:40:36.131Z,2772.00
2023-05-28T02:41:36.189Z,2752.00
2023-05-28T02:42:36.259Z,2723.00
2023-05-28T02:43:36.316Z,2734.00
2023-05-28T02:44:36.342Z,2727.00
2023-05-28T02:45:36.396Z,2719.00
2023-05-28T02:46:36.502Z,2756.00
2023-05-28T02:47:36.582Z,2734.00
2023-05-28T02:48:36.531Z,2760.00
2023-05-28T02:49:36.604Z,2745.00
2023-05-28T02:50:36.657Z,2711.00
2023-05-28T02:51:36.693Z,2679.00
2023-05-28T02:52:36.677Z,2700.00
2023-05-28T02:53:36.814Z,2700.00
2023-05-28T02:54:36.833Z,2736.00
2023-05-28T02:55:36.831Z,2746.00
2023-05-28T02:56:36.871Z,2734.00
2023-05-28T02:57:36.918Z,2674.00
2023-05-28T02:58:36.991Z,2638.00
2023-05-28T02:59:37.072Z,2619.00
2023-05-28T03:00:37.097Z,2611.00
2023-05-28T03:01:37.171Z,2625.00
2023-05-28T03:02:37.261Z,2661.00
2023-05-28T03:03:37.347Z,2653.00
2023-05-28T03:04:37.306Z,2624.00
2023-05-28T03:05:37.363Z,2639.00
2023-05-28T03:06:37.445Z,2618.00
2023-05-28T03:07:37.449Z,2555.00
2023-05-28T03:08:37.504Z,2502.00
2023-05-28T03:09:37.551Z,2460.00
2023-05-28T03:10:37.620Z,2425.00
2023-05-28T03:11:37.659Z,2427.00
2023-05-28T03:12:37.716Z,2423.00
2023-05-28T03:13:37.743Z,2402.00
2023-05-28T03:14:37.805Z,2399.00
2023-05-28T03:15:37.853Z,2386.00
2023-05-28T03:16:37.969Z,2350.00
2023-05-28T03:17:37.995Z,2389.00
2023-05-28T03:18:38.057Z,2416.00
2023-05-28T03:19:38.041Z,2433.00
2023-05-28T03:20:38.171Z,2458.00
2023-05-28T03:21:38.128Z,2459.00
2023-05-28T03:22:38.170Z,2482.00
2023-05-28T03:23:38.226Z,2471.00
2023-05-28T03:24:38.308Z,2499.00
2023-05-28T03:25:38.328Z,2500.00
2023-05-28T03:26:38.383Z,2488.00
2023-05-28T03:27:38.408Z,2442.00
2023-05-28T03:28:38.427Z,2472.00
2023-05-28T03:29:38.503Z,2468.00
2023-05-28T03:30:38.556Z,2494.00
2023-05-28T03:31:38.627Z,2524.00
2023-05-28T03:32:38.644Z,2569.00
2023-05-28T03:33:38.746Z,2580.00
2023-05-28T03:34:38.770Z,2576.00
2023-05-28T03:35:38.767Z,2596.00
2023-05-28T03:36:38.837Z,2590.00
2023-05-28T03:37:38.846Z,2604.00
2023-05-28T03:38:38.924Z,2612.00
2023-05-28T03:39:39.034Z,2607.00
2023-05-28T03:40:39.059Z,2619.00
2023-05-28T03:41:39.131Z,2591.00
2023-05-28T03:42:39.140Z,2606.00
2023-05-28T03:43:39.244Z,2594.00
2023-05-28T03:44:39.268Z,2609.00
2023-05-28T03:45:39.318Z,2622.00
2023-05-28T03:46:39.376Z,2602.00
2023-05-28T03:47:39.430Z,2629.00
2023-05-28T03:48:39.457Z,2616.00
2023-05-28T03:49:39.534Z,2631.00
2023-05-28T03:50:39.554Z,2602.00
2023-05-28T03:51:39.605Z,2589.00
2023-05-28T03:52:39.648Z,2578.00
2023-05-28T03:53:39.723Z,2556.00
2023-05-28T03:54:39.790Z,2548.00
2023-05-28T03:55:39.830Z,2547.00
2023-05-28T03:56:39.837Z,2548.00
2023-05-28T03:57:39.911Z,2575.00
2023-05-28T03:58:39.963Z,2570.00
2023-05-28T03:59:40.034Z,2553.00
2023-05-28T04:00:40.077Z,2562.00
2023-05-28T04:01:40.100Z,2572.00
2023-05-28T04:02:40.213Z,2593.00
2023-05-28T04:03:40.252Z,2594.00
2023-05-28T04:04:40.327Z,2611.00
2023-05-28T04:05:40.272Z,2590.00
2023-05-28T04:06:40.345Z,2628.00
2023-05-28T04:07:40.429Z,2635.00
2023-05-28T04:08:40.416Z,2631.00
2023-05-28T04:09:40.495Z,2569.00
2023-05-28T04:10:40.550Z,2576.00
2023-05-28T04:11:40.599Z,2561.00
2023-05-28T04:12:40.664Z,2577.00
2023-05-28T04:13:40.692Z,2569.00
2023-05-28T04:14:40.740Z,2599.00
2023-05-28T04:15:40.827Z,2605.00
2023-05-28T04:16:40.919Z,2600.00
2023-05-28T04:17:40.945Z,2590.00
2023-05-28T04:18:40.990Z,2570.00
2023-05-28T04:19:40.993Z,2580.00
2023-05-28T04:20:41.138Z,2573.00
2023-05-28T04:21:41.111Z,2534.00
2023-05-28T04:22:41.154Z,2543.00
2023-05-28T04:23:41.251Z,2551.00
2023-05-28T04:24:41.294Z,2591.00
2023-05-28T04:25:41.310Z,2573.00
2023-05-28T04:26:41.363Z,2587.00
2023-05-28T04:27:41.400Z,2581.00
2023-05-28T04:28:41.452Z,2587.00
2023-05-28T04:29:41.441Z,2590.00
2023-05-28T04:30:41.512Z,2605.00
2023-05-28T04:31:41.574Z,2596.00
2023-05-28T04:32:41.679Z,2573.00
2023-05-28T04:33:41.665Z,2560.00
2023-05-28T04:34:41.690Z,2568.00
2023-05-28T04:35:41.742Z,2570.00
2023-05-28T04:36:41.820Z,2586.00
2023-05-28T04:37:41.866Z,2598.00
2023-05-28T04:38:41.932Z,2588.00
2023-05-28T04:39:41.984Z,2584.00
2023-05-28T04:40:42.032Z,2568.00
2023-05-28T04:41:42.090Z,2600.00
2023-05-28T04:42:42.138Z,2581.00
2023-05-28T04:43:42.140Z,2619.00
2023-05-28T04:44:42.195Z,2628.00
2023-05-28T04:45:42.244Z,2621.00
2023-05-28T04:46:42.418Z,2590.00
2023-05-28T04:47:42.389Z,2632.00
2023-05-28T04:48:42.438Z,2623.00
2023-05-28T04:49:42.463Z,2625.00
2023-05-28T04:50:42.531Z,2599.00
2023-05-28T04:51:42.573Z,2576.00
2023-05-28T04:52:42.648Z,2545.00
2023-05-28T04:53:42.648Z,2528.00
2023-05-28T04:54:44.136Z,2477.00
2023-05-28T04:55:42.786Z,2466.00
2023-05-28T04:56:42.849Z,2469.00
2023-05-28T04:57:42.881Z,2459.00
2023-05-28T04:58:42.905Z,2486.00
2023-05-28T04:59:42.975Z,2502.00
2023-05-28T05:00:43.015Z,2495.00
2023-05-28T05:01:43.103Z,2433.00
2023-05-28T05:02:43.126Z,2398.00
2023-05-28T05:03:43.189Z,2371.00
2023-05-28T05:04:43.187Z,2325.00
2023-05-28T05:05:43.287Z,2287.00
2023-05-28T05:06:43.322Z,2266.00
2023-05-28T05:07:43.402Z,2223.00
2023-05-28T05:08:43.454Z,2206.00
2023-05-28T05:09:43.481Z,2176.00
2023-05-28T05:10:43.523Z,2142.00
2023-05-28T05:11:43.569Z,2154.00
2023-05-28T05:12:43.618Z,2133.00
2023-05-28T05:13:43.681Z,2122.00
2023-05-28T05:14:43.722Z,2139.00
2023-05-28T05:15:43.792Z,2134.00
2023-05-28T05:16:43.798Z,2130.00
2023-05-28T05:17:43.888Z,2104.00
2023-05-28T05:18:43.893Z,2127.00
2023-05-28T05:19:43.993Z,2101.00
2023-05-28T05:20:44.082Z,2101.00
2023-05-28T05:21:44.020Z,2101.00
2023-05-28T05:22:44.062Z,2084.00
2023-05-28T05:23:44.113Z,2089.00
2023-05-28T05:24:44.171Z,2083.00
2023-05-28T05:25:44.184Z,2094.00
2023-05-28T05:26:44.232Z,2087.00
2023-05-28T05:27:44.306Z,2088.00
2023-05-28T05:28:44.325Z,2089.00
2023-05-28T05:29:44.376Z,2094.00
2023-05-28T05:30:44.382Z,2098.00
2023-05-28T05:31:44.438Z,2099.00
2023-05-28T05:32:44.477Z,2065.00
2023-05-28T05:33:44.454Z,2076.00
2023-05-28T05:34:44.525Z,2077.00
2023-05-28T05:35:44.601Z,2065.00
2023-05-28T05:36:44.603Z,2057.00
2023-05-28T05:37:44.644Z,2043.00
2023-05-28T05:38:44.710Z,2050.00
2023-05-28T05:39:44.761Z,2031.00
2023-05-28T05:40:44.772Z,2030.00
2023-05-28T05:41:44.790Z,2021.00
2023-05-28T05:42:44.858Z,1998.00
2023-05-28T05:43:44.908Z,1994.00
2023-05-28T05:44:44.949Z,1984.00
2023-05-28T05:45:45.045Z,1950.00
2023-05-28T05:46:45.015Z,1957.00
2023-05-28T05:47:45.119Z,1954.00
2023-05-28T05:48:45.096Z,1958.00
2023-05-28T05:49:45.150Z,1971.00
2023-05-28T05:50:45.173Z,1963.00
2023-05-28T05:51:45.185Z,1994.00
2023-05-28T05:52:45.242Z,1982.00
2023-05-28T05:53:45.282Z,1991.00
2023-05-28T05:54:45.314Z,1982.00
2023-05-28T05:55:45.348Z,1966.00
2023-05-28T05:56:45.410Z,1945.00
2023-05-28T05:57:45.461Z,1931.00
2023-05-28T05:58:45.488Z,1945.00
2023-05-28T05:59:45.516Z,1968.00
2023-05-28T06:00:45.577Z,2001.00
2023-05-28T06:01:45.619Z,2018.00
2023-05-28T06:02:45.663Z,2074.00
2023-05-28T06:03:45.696Z,2097.00
2023-05-28T06:04:45.767Z,2143.00
2023-05-28T06:05:45.785Z,2151.00
2023-05-28T06:06:45.846Z,2179.00
2023-05-28T06:07:45.881Z,2224.00
2023-05-28T06:08:45.890Z,2214.00
2023-05-28T06:09:45.963Z,2215.00
2023-05-28T06:10:46.011Z,2208.00
2023-05-28T06:11:46.222Z,2212.00
2023-05-28T06:12:46.164Z,2246.00
2023-05-28T06:13:46.187Z,2238.00
2023-05-28T06:14:46.213Z,2256.00
2023-05-28T06:15:46.321Z,2279.00
2023-05-28T06:16:46.406Z,2289.00
2023-05-28T06:17:46.449Z,2316.00
2023-05-28T06:18:46.483Z,2333.00
2023-05-28T06:19:46.521Z,2320.00
2023-05-28T06:20:46.641Z,2320.00
2023-05-28T06:21:46.600Z,2346.00
2023-05-28T06:22:46.651Z,2373.00
2023-05-28T06:23:46.701Z,2388.00
2023-05-28T06:24:46.734Z,2388.00
2023-05-28T06:25:46.785Z,2383.00
2023-05-28T06:26:46.854Z,2395.00
2023-05-28T06:27:46.900Z,2374.00
2023-05-28T06:28:46.963Z,2361.00
2023-05-28T06:29:47.025Z,2363.00
2023-05-28T06:30:47.112Z,2341.00
2023-05-28T06:31:47.127Z,2340.00
2023-05-28T06:32:47.229Z,2341.00
2023-05-28T06:33:47.223Z,2312.00
2023-05-28T06:34:47.266Z,2259.00
2023-05-28T06:35:47.340Z,2211.00
2023-05-28T06:36:47.368Z,2176.00
2023-05-28T06:37:47.482Z,2161.00
2023-05-28T06:38:47.569Z,2153.00
2023-05-28T06:39:47.605Z,2121.00
2023-05-28T06:40:47.649Z,2072.00
2023-05-28T06:41:47.693Z,2073.00
2023-05-28T06:42:47.844Z,2053.00
2023-05-28T06:43:47.837Z,2049.00
2023-05-28T06:44:47.870Z,2042.00
2023-05-28T06:45:47.922Z,2001.00
2023-05-28T06:46:48.005Z,1971.00
2023-05-28T06:47:48.068Z,1959.00
2023-05-28T06:48:48.060Z,1966.00
2023-05-28T06:49:48.165Z,1976.00
2023-05-28T06:50:48.170Z,1949.00
2023-05-28T06:51:48.219Z,1945.00
2023-05-28T06:52:48.300Z,1944.00
2023-05-28T06:53:48.311Z,1961.00
2023-05-28T06:54:48.366Z,1971.00
2023-05-28T06:55:48.432Z,1985.00
2023-05-28T06:56:48.444Z,1960.00
2023-05-28T06:57:48.497Z,1969.00
2023-05-28T06:58:48.564Z,1989.00
2023-05-28T06:59:48.615Z,2021.00
2023-05-28T07:00:48.698Z,2052.00
2023-05-28T07:01:48.740Z,2109.00
2023-05-28T07:02:48.825Z,2142.00
2023-05-28T07:03:48.846Z,2143.00
2023-05-28T07:04:49.113Z,2125.00
2023-05-28T07:05:49.168Z,2160.00
2023-05-28T07:06:49.029Z,2208.00
2023-05-28T07:07:49.123Z,2207.00
2023-05-28T07:08:49.155Z,2170.00
2023-05-28T07:09:49.224Z,2213.00
2023-05-28T07:10:49.290Z,2219.00
2023-05-28T07:11:49.309Z,2247.00
2023-05-28T07:12:49.386Z,2230.00
2023-05-28T07:13:49.423Z,2259.00
2023-05-28T07:14:49.490Z,2272.00
2023-05-28T07:15:49.560Z,2263.00
2023-05-28T07:16:49.570Z,2269.00
2023-05-28T07:17:49.640Z,2223.00
2023-05-28T07:18:49.660Z,2241.00
2023-05-28T07:19:49.733Z,2267.00
2023-05-28T07:20:49.814Z,2267.00
2023-05-28T07:21:49.814Z,2292.00
2023-05-28T07:22:49.858Z,2301.00
2023-05-28T07:23:49.883Z,2349.00
2023-05-28T07:24:49.914Z,2343.00
2023-05-28T07:25:50.025Z,2326.00
2023-05-28T07:26:50.044Z,2346.00
2023-05-28T07:27:50.086Z,2353.00
2023-05-28T07:28:50.115Z,2378.00
2023-05-28T07:29:50.202Z,2364.00
2023-05-28T07:30:50.267Z,2400.00
2023-05-28T07:31:50.357Z,2412.00
2023-05-28T07:32:50.401Z,2442.00
2023-05-28T07:33:50.410Z,2465.00
2023-05-28T07:34:50.444Z,2432.00
2023-05-28T07:35:50.477Z,2467.00
2023-05-28T07:36:50.541Z,2462.00
2023-05-28T07:37:50.609Z,2455.00
2023-05-28T07:38:50.640Z,2388.00
2023-05-28T07:39:50.684Z,2391.00
2023-05-28T07:40:50.737Z,2380.00
2023-05-28T07:41:50.805Z,2386.00
2023-05-28T07:42:50.823Z,2380.00
2023-05-28T07:43:50.894Z,2400.00
2023-05-28T07:44:50.922Z,2398.00
2023-05-28T07:45:51.114Z,2434.00
2023-05-28T07:46:51.048Z,2447.00
2023-05-28T07:47:51.081Z,2442.00
2023-05-28T07:48:51.125Z,2464.00
2023-05-28T07:49:51.158Z,2458.00
2023-05-28T07:50:51.196Z,2460.00
2023-05-28T07:51:51.231Z,2435.00
2023-05-28T07:52:51.278Z,2425.00
2023-05-28T07:53:51.342Z,2408.00
2023-05-28T07:54:51.346Z,2398.00
2023-05-28T07:55:51.487Z,2391.00
2023-05-28T07:56:51.481Z,2357.00
2023-05-28T07:57:51.497Z,2350.00
2023-05-28T07:58:51.532Z,2367.00
2023-05-28T07:59:51.565Z,2373.00
2023-05-28T08:00:51.604Z,2336.00
2023-05-28T08:01:51.643Z,2339.00
2023-05-28T08:02:51.759Z,2316.00
2023-05-28T08:03:51.854Z,2308.00
2023-05-28T08:04:51.889Z,2310.00
2023-05-28T08:05:52.140Z,2326.00
2023-05-28T08:06:51.870Z,2316.00
2023-05-28T08:07:51.906Z,2280.00
2023-05-28T08:08:51.977Z,2256.00
2023-05-28T08:09:52.019Z,2261.00
2023-05-28T08:10:52.087Z,2311.00
2023-05-28T08:11:52.108Z,2298.00
2023-05-28T08:12:52.170Z,2272.00
2023-05-28T08:13:52.196Z,2259.00
2023-05-28T08:14:52.263Z,2246.00
2023-05-28T08:15:52.504Z,2261.00
2023-05-28T08:16:52.324Z,2174.00
2023-05-28T08:17:52.524Z,2166.00
2023-05-28T08:18:52.454Z,2146.00
2023-05-28T08:20:01.175Z,2163.00
2023-05-28T08:20:53.493Z,2164.00
2023-05-28T08:21:52.474Z,2171.00
2023-05-28T08:22:52.497Z,2193.00
2023-05-28T08:23:52.493Z,2241.00
2023-05-28T08:24:52.484Z,2303.00
2023-05-28T08:25:52.755Z,2347.00
2023-05-28T08:26:52.506Z,2322.00
2023-05-28T08:27:52.487Z,2347.00
2023-05-28T08:28:52.541Z,2339.00
2023-05-28T08:29:52.467Z,2325.00
2023-05-28T08:30:52.538Z,2327.00
2023-05-28T08:31:52.674Z,2307.00
2023-05-28T08:32:52.674Z,2255.00
2023-05-28T08:33:52.646Z,2278.00
2023-05-28T08:34:52.715Z,2263.00
2023-05-28T08:35:52.903Z,2231.00
2023-05-28T08:36:52.825Z,2252.00
2023-05-28T08:37:52.864Z,2207.00
2023-05-28T08:38:52.934Z,2148.00
2023-05-28T08:39:52.927Z,2172.00
2023-05-28T08:40:52.999Z,2206.00
2023-05-28T08:41:53.062Z,2163.00
2023-05-28T08:42:53.130Z,2171.00
2023-05-28T08:43:53.137Z,2181.00
2023-05-28T08:44:53.214Z,2226.00
2023-05-28T08:45:53.503Z,2242.00
2023-05-28T08:46:53.316Z,2244.00
2023-05-28T08:47:53.386Z,2257.00
2023-05-28T08:48:53.381Z,2255.00
2023-05-28T08:49:53.460Z,2267.00
2023-05-28T08:50:53.502Z,2261.00
2023-05-28T08:51:53.523Z,2252.00
2023-05-28T08:52:53.571Z,2251.00
2023-05-28T08:53:53.626Z,2259.00
2023-05-28T08:54:53.671Z,2261.00
2023-05-28T08:55:53.952Z,2237.00
2023-05-28T08:56:53.741Z,2199.00
2023-05-28T08:57:53.819Z,2175.00
2023-05-28T08:58:53.839Z,2152.00
2023-05-28T08:59:53.900Z,2180.00
2023-05-28T09:00:53.974Z,2197.00
2023-05-28T09:01:53.978Z,2195.00
2023-05-28T09:02:54.116Z,2228.00
2023-05-28T09:03:54.085Z,2211.00
2023-05-28T09:04:54.102Z,2193.00
2023-05-28T09:05:54.330Z,2201.00
2023-05-28T09:06:54.196Z,2165.00
2023-05-28T09:07:54.223Z,2211.00
2023-05-28T09:08:54.251Z,2220.00
2023-05-28T09:09:54.279Z,2212.00
2023-05-28T09:10:54.317Z,2205.00
2023-05-28T09:11:54.398Z,2202.00
2023-05-28T09:12:54.414Z,2218.00
2023-05-28T09:13:54.460Z,2193.00
2023-05-28T09:14:54.525Z,2166.00
2023-05-28T09:15:54.835Z,2159.00
2023-05-28T09:16:54.590Z,2182.00
2023-05-28T09:17:54.704Z,2210.00
2023-05-28T09:18:54.689Z,2199.00
2023-05-28T09:19:54.716Z,2191.00
2023-05-28T09:20:54.857Z,2158.00
2023-05-28T09:21:54.776Z,2136.00
2023-05-28T09:22:54.854Z,2163.00
2023-05-28T09:23:54.847Z,2181.00
2023-05-28T09:24:54.952Z,2199.00
2023-05-28T09:25:55.119Z,2205.00
2023-05-28T09:26:54.998Z,2185.00
2023-05-28T09:27:55.039Z,2178.00
2023-05-28T09:28:55.058Z,2191.00
2023-05-28T09:29:55.111Z,2191.00
2023-05-28T09:30:55.221Z,2197.00
2023-05-28T09:31:55.203Z,2161.00
2023-05-28T09:32:55.290Z,2176.00
2023-05-28T09:33:55.283Z,2163.00
2023-05-28T09:34:55.336Z,2141.00
2023-05-28T09:35:55.550Z,2150.00
2023-05-28T09:36:55.383Z,2130.00
2023-05-28T09:37:55.434Z,2170.00
2023-05-28T09:38:55.495Z,2148.00
2023-05-28T09:39:55.519Z,2131.00
2023-05-28T09:40:55.550Z,2121.00
2023-05-28T09:41:55.608Z,2122.00
2023-05-28T09:42:55.632Z,2113.00
2023-05-28T09:43:55.639Z,2097.00
2023-05-28T09:44:55.686Z,2119.00
2023-05-28T09:45:55.912Z,2112.00
2023-05-28T09:46:55.824Z,2120.00
2023-05-28T09:47:55.788Z,2108.00
2023-05-28T09:48:55.839Z,2118.00
2023-05-28T09:49:55.848Z,2123.00
2023-05-28T09:50:55.926Z,2108.00
2023-05-28T09:51:55.952Z,2108.00
2023-05-28T09:52:55.957Z,2105.00
2023-05-28T09:53:56.006Z,2084.00
2023-05-28T09:54:56.095Z,2092.00
2023-05-28T09:55:56.207Z,2080.00
2023-05-28T09:56:56.123Z,2082.00
2023-05-28T09:57:56.166Z,2079.00
2023-05-28T09:58:56.194Z,2087.00
2023-05-28T09:59:56.234Z,2055.00
2023-05-28T10:00:56.297Z,2059.00
2023-05-28T10:01:56.337Z,2060.00
2023-05-28T10:02:56.343Z,2060.00
2023-05-28T10:03:56.447Z,2032.00
2023-05-28T10:04:56.361Z,2020.00
2023-05-28T10:05:56.498Z,1994.00
2023-05-28T10:06:58.387Z,2023.00
2023-05-28T10:07:56.619Z,2014.00
2023-05-28T10:08:56.668Z,1962.00
2023-05-28T10:09:56.657Z,2003.00
2023-05-28T10:10:56.752Z,2001.00
2023-05-28T10:11:56.752Z,1980.00
2023-05-28T10:12:56.727Z,1974.00
2023-05-28T10:13:56.769Z,1971.00
2023-05-28T10:14:56.818Z,1968.00
2023-05-28T10:15:57.123Z,1976.00
2023-05-28T10:16:56.895Z,1960.00
2023-05-28T10:17:56.951Z,1971.00
2023-05-28T10:18:56.895Z,1962.00
2023-05-28T10:19:56.957Z,1950.00
2023-05-28T10:20:56.976Z,1985.00
2023-05-28T10:21:57.026Z,1952.00
2023-05-28T10:22:57.051Z,1918.00
2023-05-28T10:23:57.032Z,1929.00
2023-05-28T10:24:57.101Z,1914.00
2023-05-28T10:25:57.155Z,1936.00
2023-05-28T10:26:57.156Z,1947.00
2023-05-28T10:27:57.214Z,1888.00
2023-05-28T10:28:57.229Z,1842.00
2023-05-28T10:29:57.250Z,1765.00
2023-05-28T10:30:57.324Z,1784.00
2023-05-28T10:31:57.337Z,1813.00
2023-05-28T10:32:57.416Z,1828.00
2023-05-28T10:33:57.454Z,1848.00
2023-05-28T10:34:57.402Z,1866.00
2023-05-28T10:35:57.658Z,1867.00
2023-05-28T10:37:03.500Z,1825.00
2023-05-28T10:37:58.441Z,1826.00
2023-05-28T10:38:57.445Z,1792.00
2023-05-28T10:39:57.465Z,1806.00
2023-05-28T10:40:57.454Z,1772.00
2023-05-28T10:41:57.397Z,1784.00
2023-05-28T10:42:57.430Z,1767.00
2023-05-28T10:43:57.402Z,1731.00
2023-05-28T10:44:57.415Z,1746.00
2023-05-28T10:45:57.385Z,1709.00
2023-05-28T10:46:57.376Z,1729.00
2023-05-28T10:47:57.378Z,1732.00
2023-05-28T10:48:57.339Z,1763.00
2023-05-28T10:50:10.701Z,1739.00
2023-05-28T10:50:58.372Z,1741.00
2023-05-28T10:51:57.365Z,1744.00
2023-05-28T10:52:57.337Z,1750.00
2023-05-28T10:53:58.630Z,1749.00
2023-05-28T10:54:57.312Z,1726.00
2023-05-28T10:55:57.634Z,1714.00
2023-05-28T10:56:57.380Z,1707.00
2023-05-28T10:57:57.380Z,1667.00
2023-05-28T10:58:57.441Z,1682.00
2023-05-28T10:59:57.430Z,1599.00
2023-05-28T11:00:57.504Z,1582.00
2023-05-28T11:01:57.504Z,1542.00
2023-05-28T11:02:57.678Z,1572.00
2023-05-28T11:03:57.557Z,1570.00
2023-05-28T11:04:57.592Z,1582.00
2023-05-28T11:05:57.620Z,1553.00
2023-05-28T11:06:57.651Z,1585.00
2023-05-28T11:07:57.658Z,1567.00
2023-05-28T11:08:57.706Z,1598.00
2023-05-28T11:09:57.694Z,1596.00
2023-05-28T11:10:57.709Z,1585.00
2023-05-28T11:11:57.713Z,1582.00
2023-05-28T11:12:57.737Z,1548.00
2023-05-28T11:13:57.749Z,1528.00
2023-05-28T11:14:57.769Z,1540.00
2023-05-28T11:15:57.819Z,1550.00
2023-05-28T11:16:57.868Z,1538.00
2023-05-28T11:17:57.874Z,1508.00
2023-05-28T11:18:57.911Z,1500.00
2023-05-28T11:19:58.490Z,1498.00
2023-05-28T11:20:57.985Z,1519.00
2023-05-28T11:21:57.957Z,1526.00
2023-05-28T11:22:57.984Z,1523.00
2023-05-28T11:23:58.015Z,1547.00
2023-05-28T11:24:57.995Z,1511.00
2023-05-28T11:26:10.933Z,1407.00
2023-05-28T11:26:59.022Z,1410.00
2023-05-28T11:27:58.025Z,1418.00
2023-05-28T11:28:58.021Z,1445.00
2023-05-28T11:29:57.988Z,1398.00
2023-05-28T11:30:58.002Z,1247.00
2023-05-28T11:31:58.033Z,1301.00
2023-05-28T11:32:57.975Z,1187.00
2023-05-28T11:33:57.949Z,1007.00
2023-05-28T11:34:57.954Z,979.00
2023-05-28T11:35:57.911Z,1146.00
2023-05-28T11:36:57.899Z,1129.00
2023-05-28T11:37:57.915Z,1081.00
2023-05-28T11:38:57.894Z,1068.00
2023-05-28T11:39:57.913Z,1123.00
2023-05-28T11:40:57.891Z,1110.00
2023-05-28T11:41:57.885Z,1151.00
2023-05-28T11:42:57.866Z,1209.00
2023-05-28T11:43:57.854Z,1174.00
2023-05-28T11:44:57.878Z,1127.00
2023-05-28T11:45:57.885Z,952.00
2023-05-28T11:46:57.916Z,903.00
2023-05-28T11:47:57.946Z,1034.00
2023-05-28T11:48:57.936Z,1102.00
2023-05-28T11:49:57.935Z,1078.00
2023-05-28T11:50:57.967Z,1084.00
2023-05-28T11:51:57.999Z,1050.00
2023-05-28T11:52:57.977Z,1081.00
2023-05-28T11:53:57.986Z,1059.00
2023-05-28T11:54:58.022Z,1025.00
2023-05-28T11:55:58.038Z,996.00
2023-05-28T11:56:58.067Z,872.00
2023-05-28T11:57:58.062Z,891.00
2023-05-28T11:58:58.089Z,890.00
2023-05-28T11:59:58.117Z,847.00
2023-05-28T12:00:58.145Z,863.00
2023-05-28T12:01:58.142Z,819.00
2023-05-28T12:02:58.259Z,878.00
2023-05-28T12:03:58.299Z,789.00
2023-05-28T12:04:58.238Z,793.00
2023-05-28T12:05:58.254Z,830.00
2023-05-28T12:06:58.453Z,766.00